sensor_id;sensor_type;location;lat;lon;timestamp;temperature;humidity
678;DHT22;321;48.814;9.132;2022-12-07T00:01:16;6.90;99.90
678;DHT22;321;48.814;9.132;2022-12-07T00:03:42;6.90;99.90
678;DHT22;321;48.814;9.132;2022-12-07T00:06:10;6.90;99.90
678;DHT22;321;48.814;9.132;2022-12-07T00:08:36;6.90;99.90
678;DHT22;321;48.814;9.132;2022-12-07T00:11:17;6.90;99.90
678;DHT22;321;48.814;9.132;2022-12-07T00:13:43;7.00;99.90
678;DHT22;321;48.814;9.132;2022-12-07T00:16:13;7.00;99.90
678;DHT22;321;48.814;9.132;2022-12-07T00:18:39;6.90;99.90
678;DHT22;321;48.814;9.132;2022-12-07T00:21:09;6.90;99.90
678;DHT22;321;48.814;9.132;2022-12-07T00:23:35;6.80;99.90
678;DHT22;321;48.814;9.132;2022-12-07T00:26:12;6.80;99.90
678;DHT22;321;48.814;9.132;2022-12-07T00:28:38;6.60;99.90
678;DHT22;321;48.814;9.132;2022-12-07T00:31:09;6.60;99.90
678;DHT22;321;48.814;9.132;2022-12-07T00:33:35;6.70;99.90
678;DHT22;321;48.814;9.132;2022-12-07T00:36:03;6.90;99.90
678;DHT22;321;48.814;9.132;2022-12-07T00:38:31;6.90;99.90
678;DHT22;321;48.814;9.132;2022-12-07T00:41:00;6.80;99.90
678;DHT22;321;48.814;9.132;2022-12-07T00:43:26;6.70;99.90
678;DHT22;321;48.814;9.132;2022-12-07T00:45:53;6.70;99.90
678;DHT22;321;48.814;9.132;2022-12-07T00:48:19;6.80;99.90
678;DHT22;321;48.814;9.132;2022-12-07T00:50:45;6.80;99.90
678;DHT22;321;48.814;9.132;2022-12-07T00:53:10;6.80;99.90
678;DHT22;321;48.814;9.132;2022-12-07T00:55:36;6.90;99.90
678;DHT22;321;48.814;9.132;2022-12-07T00:58:02;7.00;99.90
678;DHT22;321;48.814;9.132;2022-12-07T01:00:28;7.00;99.90
678;DHT22;321;48.814;9.132;2022-12-07T01:02:53;7.00;99.90
678;DHT22;321;48.814;9.132;2022-12-07T01:05:19;7.10;99.90
678;DHT22;321;48.814;9.132;2022-12-07T01:07:45;7.00;99.90
678;DHT22;321;48.814;9.132;2022-12-07T01:10:12;6.90;99.90
678;DHT22;321;48.814;9.132;2022-12-07T01:12:38;6.90;99.90
678;DHT22;321;48.814;9.132;2022-12-07T01:15:04;6.90;99.90
678;DHT22;321;48.814;9.132;2022-12-07T01:17:30;6.90;99.90
678;DHT22;321;48.814;9.132;2022-12-07T01:19:55;6.90;99.90
678;DHT22;321;48.814;9.132;2022-12-07T01:22:21;6.90;99.90
678;DHT22;321;48.814;9.132;2022-12-07T01:24:46;7.00;99.90
678;DHT22;321;48.814;9.132;2022-12-07T01:27:13;7.00;99.90
678;DHT22;321;48.814;9.132;2022-12-07T01:29:39;7.00;99.90
678;DHT22;321;48.814;9.132;2022-12-07T01:32:05;7.00;99.90
678;DHT22;321;48.814;9.132;2022-12-07T01:34:31;6.80;99.90
678;DHT22;321;48.814;9.132;2022-12-07T01:36:56;6.90;99.90
678;DHT22;321;48.814;9.132;2022-12-07T01:39:22;6.90;99.90
678;DHT22;321;48.814;9.132;2022-12-07T01:41:48;6.90;99.90
678;DHT22;321;48.814;9.132;2022-12-07T01:46:47;6.90;99.90
678;DHT22;321;48.814;9.132;2022-12-07T01:49:35;6.80;99.90
678;DHT22;321;48.814;9.132;2022-12-07T01:52:28;6.80;99.90
678;DHT22;321;48.814;9.132;2022-12-07T01:55:03;6.80;99.90
678;DHT22;321;48.814;9.132;2022-12-07T01:57:30;6.80;99.90
678;DHT22;321;48.814;9.132;2022-12-07T01:59:57;6.80;99.90
678;DHT22;321;48.814;9.132;2022-12-07T02:02:33;6.80;99.90
678;DHT22;321;48.814;9.132;2022-12-07T02:05:01;6.80;99.90
678;DHT22;321;48.814;9.132;2022-12-07T02:07:29;6.80;99.90
678;DHT22;321;48.814;9.132;2022-12-07T02:09:56;6.80;99.90
678;DHT22;321;48.814;9.132;2022-12-07T02:12:23;6.80;99.90
678;DHT22;321;48.814;9.132;2022-12-07T02:14:50;6.80;99.90
678;DHT22;321;48.814;9.132;2022-12-07T02:17:25;6.80;99.90
678;DHT22;321;48.814;9.132;2022-12-07T02:20:06;6.70;99.90
678;DHT22;321;48.814;9.132;2022-12-07T02:28:33;6.70;99.90
678;DHT22;321;48.814;9.132;2022-12-07T02:31:15;6.70;99.90
678;DHT22;321;48.814;9.132;2022-12-07T02:33:54;6.60;99.90
678;DHT22;321;48.814;9.132;2022-12-07T02:36:34;6.60;99.90
678;DHT22;321;48.814;9.132;2022-12-07T02:39:09;6.70;99.90
678;DHT22;321;48.814;9.132;2022-12-07T02:41:43;6.70;99.90
678;DHT22;321;48.814;9.132;2022-12-07T02:44:16;6.70;99.90
678;DHT22;321;48.814;9.132;2022-12-07T02:46:48;6.70;99.90
678;DHT22;321;48.814;9.132;2022-12-07T02:49:16;6.60;99.90
678;DHT22;321;48.814;9.132;2022-12-07T02:51:45;6.60;99.90
678;DHT22;321;48.814;9.132;2022-12-07T02:54:19;6.60;99.90
678;DHT22;321;48.814;9.132;2022-12-07T03:05:06;6.60;99.90
678;DHT22;321;48.814;9.132;2022-12-07T03:08:01;6.60;99.90
678;DHT22;321;48.814;9.132;2022-12-07T03:21:20;6.60;99.90
678;DHT22;321;48.814;9.132;2022-12-07T03:23:50;6.70;99.90
678;DHT22;321;48.814;9.132;2022-12-07T03:26:18;6.60;99.90
678;DHT22;321;48.814;9.132;2022-12-07T03:28:51;6.60;99.90
678;DHT22;321;48.814;9.132;2022-12-07T03:31:28;6.60;99.90
678;DHT22;321;48.814;9.132;2022-12-07T03:34:11;6.60;99.90
678;DHT22;321;48.814;9.132;2022-12-07T03:36:54;6.60;99.90
678;DHT22;321;48.814;9.132;2022-12-07T03:39:36;6.50;99.90
678;DHT22;321;48.814;9.132;2022-12-07T03:42:05;6.40;99.90
678;DHT22;321;48.814;9.132;2022-12-07T03:44:32;6.50;99.90
678;DHT22;321;48.814;9.132;2022-12-07T03:49:55;5.90;99.90
678;DHT22;321;48.814;9.132;2022-12-07T03:52:36;6.00;99.90
678;DHT22;321;48.814;9.132;2022-12-07T03:57:39;6.20;99.90
678;DHT22;321;48.814;9.132;2022-12-07T04:00:08;6.20;99.90
678;DHT22;321;48.814;9.132;2022-12-07T04:02:34;6.20;99.90
678;DHT22;321;48.814;9.132;2022-12-07T04:05:01;6.10;99.90
678;DHT22;321;48.814;9.132;2022-12-07T04:07:26;6.00;99.90
678;DHT22;321;48.814;9.132;2022-12-07T04:09:52;6.00;99.90
678;DHT22;321;48.814;9.132;2022-12-07T04:12:20;5.80;99.90
678;DHT22;321;48.814;9.132;2022-12-07T04:14:46;5.90;99.90
678;DHT22;321;48.814;9.132;2022-12-07T04:17:11;5.90;99.90
678;DHT22;321;48.814;9.132;2022-12-07T04:19:37;5.90;99.90
678;DHT22;321;48.814;9.132;2022-12-07T04:22:04;5.80;99.90
678;DHT22;321;48.814;9.132;2022-12-07T04:24:29;5.60;99.90
678;DHT22;321;48.814;9.132;2022-12-07T04:26:55;5.50;99.90
678;DHT22;321;48.814;9.132;2022-12-07T04:29:21;5.40;99.90
678;DHT22;321;48.814;9.132;2022-12-07T04:31:47;5.40;99.90
678;DHT22;321;48.814;9.132;2022-12-07T04:34:13;5.40;99.90
678;DHT22;321;48.814;9.132;2022-12-07T04:36:39;5.40;99.90
678;DHT22;321;48.814;9.132;2022-12-07T04:39:05;5.30;99.90
678;DHT22;321;48.814;9.132;2022-12-07T04:41:31;5.10;99.90
678;DHT22;321;48.814;9.132;2022-12-07T04:43:59;5.10;99.90
678;DHT22;321;48.814;9.132;2022-12-07T04:46:26;5.20;99.90
678;DHT22;321;48.814;9.132;2022-12-07T04:48:53;5.00;99.90
678;DHT22;321;48.814;9.132;2022-12-07T04:51:21;5.10;99.90
678;DHT22;321;48.814;9.132;2022-12-07T04:53:47;5.20;99.90
678;DHT22;321;48.814;9.132;2022-12-07T04:56:13;5.30;99.90
678;DHT22;321;48.814;9.132;2022-12-07T04:58:39;5.30;99.90
678;DHT22;321;48.814;9.132;2022-12-07T05:01:05;5.30;99.90
678;DHT22;321;48.814;9.132;2022-12-07T05:03:30;5.30;99.90
678;DHT22;321;48.814;9.132;2022-12-07T05:05:56;5.40;99.90
678;DHT22;321;48.814;9.132;2022-12-07T05:08:21;5.40;99.90
678;DHT22;321;48.814;9.132;2022-12-07T05:10:48;5.20;99.90
678;DHT22;321;48.814;9.132;2022-12-07T05:13:14;5.10;99.90
678;DHT22;321;48.814;9.132;2022-12-07T05:15:40;5.30;99.90
678;DHT22;321;48.814;9.132;2022-12-07T05:18:05;5.30;99.90
678;DHT22;321;48.814;9.132;2022-12-07T05:20:31;5.40;99.90
678;DHT22;321;48.814;9.132;2022-12-07T05:22:57;5.50;99.90
678;DHT22;321;48.814;9.132;2022-12-07T05:25:23;5.50;99.90
678;DHT22;321;48.814;9.132;2022-12-07T05:27:49;5.40;99.90
678;DHT22;321;48.814;9.132;2022-12-07T05:30:15;5.50;99.90
678;DHT22;321;48.814;9.132;2022-12-07T05:32:40;5.40;99.90
678;DHT22;321;48.814;9.132;2022-12-07T05:35:06;5.40;99.90
678;DHT22;321;48.814;9.132;2022-12-07T05:37:32;5.20;99.90
678;DHT22;321;48.814;9.132;2022-12-07T05:39:57;5.10;99.90
678;DHT22;321;48.814;9.132;2022-12-07T05:42:23;5.10;99.90
678;DHT22;321;48.814;9.132;2022-12-07T05:44:49;5.10;99.90
678;DHT22;321;48.814;9.132;2022-12-07T05:47:15;5.00;99.90
678;DHT22;321;48.814;9.132;2022-12-07T05:49:41;5.00;99.90
678;DHT22;321;48.814;9.132;2022-12-07T05:52:06;5.00;99.90
678;DHT22;321;48.814;9.132;2022-12-07T05:54:33;4.90;99.90
678;DHT22;321;48.814;9.132;2022-12-07T05:56:58;4.90;99.90
678;DHT22;321;48.814;9.132;2022-12-07T05:59:24;4.90;99.90
678;DHT22;321;48.814;9.132;2022-12-07T06:01:53;4.90;99.90
678;DHT22;321;48.814;9.132;2022-12-07T06:04:20;5.00;99.90
678;DHT22;321;48.814;9.132;2022-12-07T06:06:46;5.10;99.90
678;DHT22;321;48.814;9.132;2022-12-07T06:09:12;5.10;99.90
678;DHT22;321;48.814;9.132;2022-12-07T06:11:38;5.20;99.90
678;DHT22;321;48.814;9.132;2022-12-07T06:14:23;5.20;99.90
678;DHT22;321;48.814;9.132;2022-12-07T06:16:48;5.20;99.90
678;DHT22;321;48.814;9.132;2022-12-07T06:19:14;5.40;99.90
678;DHT22;321;48.814;9.132;2022-12-07T06:21:40;5.40;99.90
678;DHT22;321;48.814;9.132;2022-12-07T06:24:06;5.50;99.90
678;DHT22;321;48.814;9.132;2022-12-07T06:26:32;5.40;99.90
678;DHT22;321;48.814;9.132;2022-12-07T06:28:57;5.50;99.90
678;DHT22;321;48.814;9.132;2022-12-07T06:31:23;5.50;99.90
678;DHT22;321;48.814;9.132;2022-12-07T06:33:49;5.40;99.90
678;DHT22;321;48.814;9.132;2022-12-07T06:36:14;5.50;99.90
678;DHT22;321;48.814;9.132;2022-12-07T06:38:40;5.60;99.90
678;DHT22;321;48.814;9.132;2022-12-07T06:41:05;5.50;99.90
678;DHT22;321;48.814;9.132;2022-12-07T06:43:32;5.70;99.90
678;DHT22;321;48.814;9.132;2022-12-07T06:45:57;5.70;99.90
678;DHT22;321;48.814;9.132;2022-12-07T06:48:23;5.70;99.90
678;DHT22;321;48.814;9.132;2022-12-07T06:50:49;5.60;99.90
678;DHT22;321;48.814;9.132;2022-12-07T06:53:14;5.50;99.90
678;DHT22;321;48.814;9.132;2022-12-07T06:55:40;5.50;99.90
678;DHT22;321;48.814;9.132;2022-12-07T06:58:05;5.50;99.90
678;DHT22;321;48.814;9.132;2022-12-07T07:00:31;5.60;99.90
678;DHT22;321;48.814;9.132;2022-12-07T07:02:56;5.40;99.90
678;DHT22;321;48.814;9.132;2022-12-07T07:05:22;5.50;99.90
678;DHT22;321;48.814;9.132;2022-12-07T07:07:49;5.50;99.90
678;DHT22;321;48.814;9.132;2022-12-07T07:10:15;5.50;99.90
678;DHT22;321;48.814;9.132;2022-12-07T07:12:40;5.50;99.90
678;DHT22;321;48.814;9.132;2022-12-07T07:15:06;5.40;99.90
678;DHT22;321;48.814;9.132;2022-12-07T07:17:32;5.20;99.90
678;DHT22;321;48.814;9.132;2022-12-07T07:19:57;5.20;99.90
678;DHT22;321;48.814;9.132;2022-12-07T07:22:23;5.40;99.90
678;DHT22;321;48.814;9.132;2022-12-07T07:24:49;5.40;99.90
678;DHT22;321;48.814;9.132;2022-12-07T07:27:14;5.40;99.90
678;DHT22;321;48.814;9.132;2022-12-07T07:29:40;5.60;99.90
678;DHT22;321;48.814;9.132;2022-12-07T07:32:05;5.40;99.90
678;DHT22;321;48.814;9.132;2022-12-07T07:34:32;5.60;99.90
678;DHT22;321;48.814;9.132;2022-12-07T07:36:58;5.60;99.90
678;DHT22;321;48.814;9.132;2022-12-07T07:39:24;5.50;99.90
678;DHT22;321;48.814;9.132;2022-12-07T07:41:49;5.50;99.90
678;DHT22;321;48.814;9.132;2022-12-07T07:44:15;5.60;99.90
678;DHT22;321;48.814;9.132;2022-12-07T07:46:40;5.80;99.90
678;DHT22;321;48.814;9.132;2022-12-07T07:49:06;5.70;99.90
678;DHT22;321;48.814;9.132;2022-12-07T07:51:31;5.70;99.90
678;DHT22;321;48.814;9.132;2022-12-07T07:53:57;5.90;99.90
678;DHT22;321;48.814;9.132;2022-12-07T07:56:22;5.90;99.90
678;DHT22;321;48.814;9.132;2022-12-07T07:58:52;6.00;99.90
678;DHT22;321;48.814;9.132;2022-12-07T08:01:17;6.10;99.90
678;DHT22;321;48.814;9.132;2022-12-07T08:03:46;6.20;99.90
678;DHT22;321;48.814;9.132;2022-12-07T08:06:11;6.20;99.90
678;DHT22;321;48.814;9.132;2022-12-07T08:08:37;6.30;99.90
678;DHT22;321;48.814;9.132;2022-12-07T08:11:06;6.40;99.90
678;DHT22;321;48.814;9.132;2022-12-07T08:13:32;6.40;99.90
678;DHT22;321;48.814;9.132;2022-12-07T08:15:57;6.50;99.90
678;DHT22;321;48.814;9.132;2022-12-07T08:18:23;6.60;99.90
678;DHT22;321;48.814;9.132;2022-12-07T08:20:49;6.70;99.90
678;DHT22;321;48.814;9.132;2022-12-07T08:23:14;6.90;99.90
678;DHT22;321;48.814;9.132;2022-12-07T08:25:40;6.90;99.90
678;DHT22;321;48.814;9.132;2022-12-07T08:28:06;6.90;99.90
678;DHT22;321;48.814;9.132;2022-12-07T08:30:32;7.00;99.90
678;DHT22;321;48.814;9.132;2022-12-07T08:32:57;7.10;99.90
678;DHT22;321;48.814;9.132;2022-12-07T08:35:24;7.10;99.90
678;DHT22;321;48.814;9.132;2022-12-07T08:37:50;7.10;99.90
678;DHT22;321;48.814;9.132;2022-12-07T08:40:15;7.30;99.90
678;DHT22;321;48.814;9.132;2022-12-07T08:42:51;7.20;99.90
678;DHT22;321;48.814;9.132;2022-12-07T08:45:18;7.30;99.90
678;DHT22;321;48.814;9.132;2022-12-07T08:48:01;7.40;99.90
678;DHT22;321;48.814;9.132;2022-12-07T08:50:27;7.50;99.90
678;DHT22;321;48.814;9.132;2022-12-07T08:52:56;7.50;99.90
678;DHT22;321;48.814;9.132;2022-12-07T08:55:22;7.60;99.90
678;DHT22;321;48.814;9.132;2022-12-07T08:57:48;7.60;99.90
678;DHT22;321;48.814;9.132;2022-12-07T09:00:15;7.50;99.90
678;DHT22;321;48.814;9.132;2022-12-07T09:02:43;7.20;99.90
678;DHT22;321;48.814;9.132;2022-12-07T09:05:09;7.20;99.90
678;DHT22;321;48.814;9.132;2022-12-07T09:07:35;7.20;99.90
678;DHT22;321;48.814;9.132;2022-12-07T09:10:01;7.50;99.90
678;DHT22;321;48.814;9.132;2022-12-07T09:12:27;7.70;99.90
678;DHT22;321;48.814;9.132;2022-12-07T09:14:53;7.50;99.90
678;DHT22;321;48.814;9.132;2022-12-07T09:17:18;7.50;99.90
678;DHT22;321;48.814;9.132;2022-12-07T09:19:44;7.70;99.90
678;DHT22;321;48.814;9.132;2022-12-07T09:22:10;7.80;99.90
678;DHT22;321;48.814;9.132;2022-12-07T09:24:36;8.00;99.90
678;DHT22;321;48.814;9.132;2022-12-07T09:27:01;8.20;99.90
678;DHT22;321;48.814;9.132;2022-12-07T09:29:27;8.10;99.90
678;DHT22;321;48.814;9.132;2022-12-07T09:31:52;8.20;99.90
678;DHT22;321;48.814;9.132;2022-12-07T09:34:18;8.30;99.90
678;DHT22;321;48.814;9.132;2022-12-07T09:36:45;8.40;99.90
678;DHT22;321;48.814;9.132;2022-12-07T09:39:10;8.30;99.90
678;DHT22;321;48.814;9.132;2022-12-07T09:41:43;8.30;99.90
678;DHT22;321;48.814;9.132;2022-12-07T09:44:16;8.40;99.90
678;DHT22;321;48.814;9.132;2022-12-07T09:46:43;8.50;99.90
678;DHT22;321;48.814;9.132;2022-12-07T09:49:18;8.70;99.90
678;DHT22;321;48.814;9.132;2022-12-07T09:51:44;8.80;99.90
678;DHT22;321;48.814;9.132;2022-12-07T09:54:13;8.70;99.90
678;DHT22;321;48.814;9.132;2022-12-07T09:56:39;8.40;99.90
678;DHT22;321;48.814;9.132;2022-12-07T09:59:04;8.60;99.90
678;DHT22;321;48.814;9.132;2022-12-07T10:01:32;8.60;99.90
678;DHT22;321;48.814;9.132;2022-12-07T10:04:20;8.90;99.90
678;DHT22;321;48.814;9.132;2022-12-07T10:06:46;9.00;99.90
678;DHT22;321;48.814;9.132;2022-12-07T10:09:15;9.00;99.90
678;DHT22;321;48.814;9.132;2022-12-07T10:12:00;8.90;99.90
678;DHT22;321;48.814;9.132;2022-12-07T10:14:28;9.00;99.90
678;DHT22;321;48.814;9.132;2022-12-07T10:16:54;8.90;99.90
678;DHT22;321;48.814;9.132;2022-12-07T10:19:24;8.80;99.90
678;DHT22;321;48.814;9.132;2022-12-07T10:22:15;9.00;99.90
678;DHT22;321;48.814;9.132;2022-12-07T10:24:43;8.90;99.90
678;DHT22;321;48.814;9.132;2022-12-07T10:27:20;9.20;99.90
678;DHT22;321;48.814;9.132;2022-12-07T10:29:50;9.20;99.90
678;DHT22;321;48.814;9.132;2022-12-07T10:34:42;9.40;99.90
678;DHT22;321;48.814;9.132;2022-12-07T10:39:55;9.30;99.90
678;DHT22;321;48.814;9.132;2022-12-07T10:42:29;9.10;99.90
678;DHT22;321;48.814;9.132;2022-12-07T10:53:38;8.90;99.90
678;DHT22;321;48.814;9.132;2022-12-07T10:56:13;8.90;99.90
678;DHT22;321;48.814;9.132;2022-12-07T11:04:18;9.10;99.90
678;DHT22;321;48.814;9.132;2022-12-07T11:09:57;8.90;99.90
678;DHT22;321;48.814;9.132;2022-12-07T11:15:18;8.90;99.90
678;DHT22;321;48.814;9.132;2022-12-07T11:17:57;8.90;99.90
678;DHT22;321;48.814;9.132;2022-12-07T11:23:15;8.80;99.90
678;DHT22;321;48.814;9.132;2022-12-07T11:26:05;8.60;99.90
678;DHT22;321;48.814;9.132;2022-12-07T11:28:52;8.50;99.90
678;DHT22;321;48.814;9.132;2022-12-07T11:31:33;8.40;99.90
678;DHT22;321;48.814;9.132;2022-12-07T11:34:05;8.20;99.90
678;DHT22;321;48.814;9.132;2022-12-07T11:36:46;8.00;99.90
678;DHT22;321;48.814;9.132;2022-12-07T11:39:25;8.00;99.90
678;DHT22;321;48.814;9.132;2022-12-07T11:41:56;8.10;99.90
678;DHT22;321;48.814;9.132;2022-12-07T11:44:56;8.20;99.90
678;DHT22;321;48.814;9.132;2022-12-07T11:47:47;7.90;99.90
678;DHT22;321;48.814;9.132;2022-12-07T11:55:43;7.70;99.90
678;DHT22;321;48.814;9.132;2022-12-07T12:01:22;7.60;99.90
678;DHT22;321;48.814;9.132;2022-12-07T12:03:54;7.60;99.90
678;DHT22;321;48.814;9.132;2022-12-07T12:06:22;7.70;99.90
678;DHT22;321;48.814;9.132;2022-12-07T12:14:37;8.20;99.90
678;DHT22;321;48.814;9.132;2022-12-07T12:20:30;8.00;99.90
678;DHT22;321;48.814;9.132;2022-12-07T12:26:05;8.00;99.90
678;DHT22;321;48.814;9.132;2022-12-07T12:31:36;7.80;99.90
678;DHT22;321;48.814;9.132;2022-12-07T12:42:48;8.00;99.90
678;DHT22;321;48.814;9.132;2022-12-07T12:45:28;8.00;99.90
678;DHT22;321;48.814;9.132;2022-12-07T12:47:55;8.20;99.90
678;DHT22;321;48.814;9.132;2022-12-07T12:50:27;8.20;99.90
678;DHT22;321;48.814;9.132;2022-12-07T12:52:57;8.10;99.90
678;DHT22;321;48.814;9.132;2022-12-07T12:55:52;8.20;99.90
678;DHT22;321;48.814;9.132;2022-12-07T12:58:30;8.30;99.90
678;DHT22;321;48.814;9.132;2022-12-07T13:04:00;8.30;99.90
678;DHT22;321;48.814;9.132;2022-12-07T13:08:53;8.30;99.90
678;DHT22;321;48.814;9.132;2022-12-07T13:11:33;8.10;99.90
678;DHT22;321;48.814;9.132;2022-12-07T13:14:35;8.20;99.90
678;DHT22;321;48.814;9.132;2022-12-07T13:17:01;8.40;99.90
678;DHT22;321;48.814;9.132;2022-12-07T13:19:53;8.40;99.90
678;DHT22;321;48.814;9.132;2022-12-07T13:25:30;8.40;99.90
678;DHT22;321;48.814;9.132;2022-12-07T13:30:47;8.40;99.90
678;DHT22;321;48.814;9.132;2022-12-07T13:33:17;8.40;99.90
678;DHT22;321;48.814;9.132;2022-12-07T13:35:43;8.30;99.90
678;DHT22;321;48.814;9.132;2022-12-07T13:38:35;8.40;99.90
678;DHT22;321;48.814;9.132;2022-12-07T13:43:53;8.30;99.90
678;DHT22;321;48.814;9.132;2022-12-07T13:46:34;8.50;99.90
678;DHT22;321;48.814;9.132;2022-12-07T13:49:01;8.40;99.90
678;DHT22;321;48.814;9.132;2022-12-07T13:51:28;8.30;99.90
678;DHT22;321;48.814;9.132;2022-12-07T13:53:57;8.30;99.90
678;DHT22;321;48.814;9.132;2022-12-07T13:56:32;8.30;99.90
678;DHT22;321;48.814;9.132;2022-12-07T13:58:58;8.10;99.90
678;DHT22;321;48.814;9.132;2022-12-07T14:01:24;8.20;99.90
678;DHT22;321;48.814;9.132;2022-12-07T14:03:50;8.30;99.90
678;DHT22;321;48.814;9.132;2022-12-07T14:06:26;8.10;99.90
678;DHT22;321;48.814;9.132;2022-12-07T14:09:21;7.80;99.90
678;DHT22;321;48.814;9.132;2022-12-07T14:11:48;7.90;99.90
678;DHT22;321;48.814;9.132;2022-12-07T14:14:19;7.90;99.90
678;DHT22;321;48.814;9.132;2022-12-07T14:16:59;7.80;99.90
678;DHT22;321;48.814;9.132;2022-12-07T14:19:42;7.90;99.90
678;DHT22;321;48.814;9.132;2022-12-07T14:22:18;8.00;99.90
678;DHT22;321;48.814;9.132;2022-12-07T14:24:44;7.90;99.90
678;DHT22;321;48.814;9.132;2022-12-07T14:27:22;8.00;99.90
678;DHT22;321;48.814;9.132;2022-12-07T14:29:48;8.10;99.90
678;DHT22;321;48.814;9.132;2022-12-07T14:32:25;7.90;99.90
678;DHT22;321;48.814;9.132;2022-12-07T14:35:01;8.00;99.90
678;DHT22;321;48.814;9.132;2022-12-07T14:37:29;7.90;99.90
678;DHT22;321;48.814;9.132;2022-12-07T14:39:55;7.90;99.90
678;DHT22;321;48.814;9.132;2022-12-07T14:42:22;7.80;99.90
678;DHT22;321;48.814;9.132;2022-12-07T14:44:48;7.70;99.90
678;DHT22;321;48.814;9.132;2022-12-07T14:47:14;7.60;99.90
678;DHT22;321;48.814;9.132;2022-12-07T14:49:39;7.60;99.90
678;DHT22;321;48.814;9.132;2022-12-07T14:52:09;7.50;99.90
678;DHT22;321;48.814;9.132;2022-12-07T14:54:37;7.30;99.90
678;DHT22;321;48.814;9.132;2022-12-07T14:57:02;7.20;99.90
678;DHT22;321;48.814;9.132;2022-12-07T14:59:28;7.40;99.90
678;DHT22;321;48.814;9.132;2022-12-07T15:01:53;7.50;99.90
678;DHT22;321;48.814;9.132;2022-12-07T15:04:19;7.50;99.90
678;DHT22;321;48.814;9.132;2022-12-07T15:06:58;7.60;99.90
678;DHT22;321;48.814;9.132;2022-12-07T15:09:23;7.60;99.90
678;DHT22;321;48.814;9.132;2022-12-07T15:11:49;7.50;99.90
678;DHT22;321;48.814;9.132;2022-12-07T15:14:15;7.50;99.90
678;DHT22;321;48.814;9.132;2022-12-07T15:16:42;7.40;99.90
678;DHT22;321;48.814;9.132;2022-12-07T15:19:17;7.50;99.90
678;DHT22;321;48.814;9.132;2022-12-07T15:21:43;7.30;99.90
678;DHT22;321;48.814;9.132;2022-12-07T15:24:10;7.20;99.90
678;DHT22;321;48.814;9.132;2022-12-07T15:26:35;7.30;99.90
678;DHT22;321;48.814;9.132;2022-12-07T15:29:01;7.20;99.90
678;DHT22;321;48.814;9.132;2022-12-07T15:31:29;7.40;99.90
678;DHT22;321;48.814;9.132;2022-12-07T15:33:55;7.30;99.90
678;DHT22;321;48.814;9.132;2022-12-07T15:36:27;7.10;99.90
678;DHT22;321;48.814;9.132;2022-12-07T15:38:53;7.00;99.90
678;DHT22;321;48.814;9.132;2022-12-07T15:41:19;7.00;99.90
678;DHT22;321;48.814;9.132;2022-12-07T15:43:45;6.90;99.90
678;DHT22;321;48.814;9.132;2022-12-07T15:46:35;6.70;99.90
678;DHT22;321;48.814;9.132;2022-12-07T15:49:01;6.70;99.90
678;DHT22;321;48.814;9.132;2022-12-07T15:51:27;6.70;99.90
678;DHT22;321;48.814;9.132;2022-12-07T15:53:53;6.70;99.90
678;DHT22;321;48.814;9.132;2022-12-07T15:56:19;6.50;99.90
678;DHT22;321;48.814;9.132;2022-12-07T15:58:44;6.50;99.90
678;DHT22;321;48.814;9.132;2022-12-07T16:01:15;6.40;99.90
678;DHT22;321;48.814;9.132;2022-12-07T16:03:41;6.20;99.90
678;DHT22;321;48.814;9.132;2022-12-07T16:06:07;6.10;99.90
678;DHT22;321;48.814;9.132;2022-12-07T16:08:33;6.20;99.90
678;DHT22;321;48.814;9.132;2022-12-07T16:10:59;6.20;99.90
678;DHT22;321;48.814;9.132;2022-12-07T16:13:24;6.20;99.90
678;DHT22;321;48.814;9.132;2022-12-07T16:15:50;6.20;99.90
678;DHT22;321;48.814;9.132;2022-12-07T16:18:15;6.30;99.90
678;DHT22;321;48.814;9.132;2022-12-07T16:20:41;6.20;99.90
678;DHT22;321;48.814;9.132;2022-12-07T16:23:07;6.20;99.90
678;DHT22;321;48.814;9.132;2022-12-07T16:25:33;6.30;99.90
678;DHT22;321;48.814;9.132;2022-12-07T16:27:58;6.30;99.90
678;DHT22;321;48.814;9.132;2022-12-07T16:30:24;6.40;99.90
678;DHT22;321;48.814;9.132;2022-12-07T16:32:51;6.30;99.90
678;DHT22;321;48.814;9.132;2022-12-07T16:35:16;6.30;99.90
678;DHT22;321;48.814;9.132;2022-12-07T16:37:42;6.20;99.90
678;DHT22;321;48.814;9.132;2022-12-07T16:40:08;6.10;99.90
678;DHT22;321;48.814;9.132;2022-12-07T16:42:35;6.10;99.90
678;DHT22;321;48.814;9.132;2022-12-07T16:45:01;5.90;99.90
678;DHT22;321;48.814;9.132;2022-12-07T16:47:26;5.80;99.90
678;DHT22;321;48.814;9.132;2022-12-07T16:49:52;5.80;99.90
678;DHT22;321;48.814;9.132;2022-12-07T16:52:19;5.80;99.90
678;DHT22;321;48.814;9.132;2022-12-07T16:54:44;5.70;99.90
678;DHT22;321;48.814;9.132;2022-12-07T16:57:10;5.60;99.90
678;DHT22;321;48.814;9.132;2022-12-07T16:59:36;5.50;99.90
678;DHT22;321;48.814;9.132;2022-12-07T17:02:01;5.40;99.90
678;DHT22;321;48.814;9.132;2022-12-07T17:04:27;5.30;99.90
678;DHT22;321;48.814;9.132;2022-12-07T17:06:53;5.10;99.90
678;DHT22;321;48.814;9.132;2022-12-07T17:09:18;5.00;99.90
678;DHT22;321;48.814;9.132;2022-12-07T17:11:44;5.10;99.90
678;DHT22;321;48.814;9.132;2022-12-07T17:14:10;5.00;99.90
678;DHT22;321;48.814;9.132;2022-12-07T17:16:54;4.90;99.90
678;DHT22;321;48.814;9.132;2022-12-07T17:19:20;5.00;99.90
678;DHT22;321;48.814;9.132;2022-12-07T17:21:46;5.10;99.90
678;DHT22;321;48.814;9.132;2022-12-07T17:24:14;5.10;99.90
678;DHT22;321;48.814;9.132;2022-12-07T17:26:41;5.00;99.90
678;DHT22;321;48.814;9.132;2022-12-07T17:29:08;5.00;99.90
678;DHT22;321;48.814;9.132;2022-12-07T17:31:34;5.20;99.90
678;DHT22;321;48.814;9.132;2022-12-07T17:34:00;5.30;99.90
678;DHT22;321;48.814;9.132;2022-12-07T17:36:28;5.30;99.90
678;DHT22;321;48.814;9.132;2022-12-07T17:38:55;5.30;99.90
678;DHT22;321;48.814;9.132;2022-12-07T17:41:23;5.50;99.90
678;DHT22;321;48.814;9.132;2022-12-07T17:44:11;5.70;99.90
678;DHT22;321;48.814;9.132;2022-12-07T17:46:37;5.60;99.90
678;DHT22;321;48.814;9.132;2022-12-07T17:49:04;5.70;99.90
678;DHT22;321;48.814;9.132;2022-12-07T17:51:30;5.70;99.90
678;DHT22;321;48.814;9.132;2022-12-07T17:54:15;5.70;99.90
678;DHT22;321;48.814;9.132;2022-12-07T17:56:41;5.60;99.90
678;DHT22;321;48.814;9.132;2022-12-07T17:59:07;5.60;99.90
678;DHT22;321;48.814;9.132;2022-12-07T18:01:34;5.70;99.90
678;DHT22;321;48.814;9.132;2022-12-07T18:03:59;5.60;99.90
678;DHT22;321;48.814;9.132;2022-12-07T18:06:25;5.60;99.90
678;DHT22;321;48.814;9.132;2022-12-07T18:08:51;5.60;99.90
678;DHT22;321;48.814;9.132;2022-12-07T18:11:17;5.60;99.90
678;DHT22;321;48.814;9.132;2022-12-07T18:13:43;5.70;99.90
678;DHT22;321;48.814;9.132;2022-12-07T18:16:26;5.70;99.90
678;DHT22;321;48.814;9.132;2022-12-07T18:18:53;5.70;99.90
678;DHT22;321;48.814;9.132;2022-12-07T18:21:23;5.70;99.90
678;DHT22;321;48.814;9.132;2022-12-07T18:23:51;5.70;99.90
678;DHT22;321;48.814;9.132;2022-12-07T18:26:18;5.60;99.90
678;DHT22;321;48.814;9.132;2022-12-07T18:28:44;5.60;99.90
678;DHT22;321;48.814;9.132;2022-12-07T18:31:11;5.60;99.90
678;DHT22;321;48.814;9.132;2022-12-07T18:33:40;5.70;99.90
678;DHT22;321;48.814;9.132;2022-12-07T18:36:07;5.80;99.90
678;DHT22;321;48.814;9.132;2022-12-07T18:38:33;5.90;99.90
678;DHT22;321;48.814;9.132;2022-12-07T18:41:01;6.00;99.90
678;DHT22;321;48.814;9.132;2022-12-07T18:43:27;6.10;99.90
678;DHT22;321;48.814;9.132;2022-12-07T18:45:52;6.10;99.90
678;DHT22;321;48.814;9.132;2022-12-07T18:48:20;6.20;99.90
678;DHT22;321;48.814;9.132;2022-12-07T18:51:02;6.20;99.90